createdAt,value
2018-08-25T00:00:01.124Z,57.80
2018-08-25T00:02:28.446Z,57.20
2018-08-25T00:04:55.765Z,57.90
2018-08-25T00:07:23.138Z,57.50
2018-08-25T00:09:50.582Z,57.60
2018-08-25T00:12:17.870Z,56.90
2018-08-25T00:14:45.171Z,56.60
2018-08-25T00:17:12.754Z,56.90
2018-08-25T00:19:40.059Z,57.50
2018-08-25T00:22:07.391Z,57.80
2018-08-25T00:24:34.695Z,57.70
2018-08-25T00:27:02.042Z,58.60
2018-08-25T00:29:29.321Z,59.00
2018-08-25T00:31:56.626Z,59.00
2018-08-25T00:34:23.951Z,59.30
2018-08-25T00:36:51.265Z,60.00
2018-08-25T00:39:18.554Z,59.90
2018-08-25T00:41:45.875Z,59.50
2018-08-25T00:44:13.186Z,59.40
2018-08-25T00:46:40.479Z,59.20
2018-08-25T00:49:07.796Z,59.10
2018-08-25T00:51:35.153Z,58.70
2018-08-25T00:54:02.488Z,59.50
2018-08-25T00:56:29.795Z,59.20
2018-08-25T00:58:57.123Z,59.80
2018-08-25T01:01:24.450Z,59.80
2018-08-25T01:03:51.783Z,59.90
2018-08-25T01:06:19.102Z,59.60
2018-08-25T01:08:46.425Z,60.20
2018-08-25T01:11:13.735Z,60.50
2018-08-25T01:13:41.066Z,60.90
2018-08-25T01:16:08.375Z,61.00
2018-08-25T01:18:35.770Z,61.70
2018-08-25T01:21:03.127Z,62.00
2018-08-25T01:23:30.440Z,62.00
2018-08-25T01:25:57.886Z,62.20
2018-08-25T01:28:25.204Z,61.20
2018-08-25T01:30:52.558Z,61.60
2018-08-25T01:33:19.867Z,61.30
2018-08-25T01:35:47.200Z,61.20
2018-08-25T01:38:14.512Z,61.00
2018-08-25T01:40:41.866Z,61.20
2018-08-25T01:43:09.171Z,61.60
2018-08-25T01:45:36.536Z,61.20
2018-08-25T01:48:03.993Z,61.10
2018-08-25T01:50:31.928Z,61.20
2018-08-25T01:52:59.275Z,61.20
2018-08-25T01:55:26.607Z,61.40
2018-08-25T01:57:54.367Z,61.40
2018-08-25T02:00:21.670Z,61.70
2018-08-25T02:02:49.077Z,61.90
2018-08-25T02:05:16.346Z,62.00
2018-08-25T02:07:43.726Z,62.30
2018-08-25T02:10:11.063Z,62.60
2018-08-25T02:12:38.417Z,62.70
2018-08-25T02:15:05.949Z,63.40
2018-08-25T02:17:33.325Z,63.60
2018-08-25T02:20:00.735Z,63.60
2018-08-25T02:22:28.086Z,63.90
2018-08-25T02:24:55.449Z,64.20
2018-08-25T02:27:22.827Z,64.00
2018-08-25T02:29:50.151Z,64.20
2018-08-25T02:32:17.483Z,64.40
2018-08-25T02:34:44.813Z,64.60
2018-08-25T02:37:12.137Z,64.60
2018-08-25T02:39:39.455Z,64.60
2018-08-25T02:42:06.809Z,64.30
2018-08-25T02:44:34.177Z,64.40
2018-08-25T02:47:01.503Z,64.30
2018-08-25T02:49:28.859Z,64.20
2018-08-25T02:51:56.198Z,64.30
2018-08-25T02:54:23.522Z,64.40
2018-08-25T02:56:50.871Z,64.60
2018-08-25T02:59:18.175Z,64.70
2018-08-25T03:01:45.789Z,65.10
2018-08-25T03:04:13.118Z,64.70
2018-08-25T03:06:40.459Z,64.80
2018-08-25T03:09:08.352Z,65.30
2018-08-25T03:11:35.720Z,65.50
2018-08-25T03:14:03.074Z,65.30
2018-08-25T03:16:30.431Z,65.60
2018-08-25T03:18:57.737Z,65.70
2018-08-25T03:21:25.063Z,66.30
2018-08-25T03:23:52.411Z,66.60
2018-08-25T03:26:19.732Z,66.30
2018-08-25T03:28:47.059Z,66.50
2018-08-25T03:31:14.370Z,66.70
2018-08-25T03:33:41.718Z,66.80
2018-08-25T03:36:09.044Z,67.00
2018-08-25T03:38:36.416Z,67.20
2018-08-25T03:41:03.837Z,67.10
2018-08-25T03:43:31.215Z,67.50
2018-08-25T03:45:58.580Z,67.40
2018-08-25T03:48:25.918Z,67.40
2018-08-25T03:50:53.238Z,67.80
2018-08-25T03:53:20.553Z,67.60
2018-08-25T03:55:47.895Z,67.90
2018-08-25T03:58:15.194Z,68.20
2018-08-25T04:00:42.534Z,68.30
2018-08-25T04:03:09.859Z,68.70
2018-08-25T04:05:37.246Z,68.80
2018-08-25T04:08:04.662Z,68.70
2018-08-25T04:10:31.991Z,68.80
2018-08-25T04:12:59.313Z,68.90
2018-08-25T04:15:26.650Z,68.60
2018-08-25T04:17:53.992Z,68.30
2018-08-25T04:20:27.997Z,68.30
2018-08-25T04:22:55.328Z,68.30
2018-08-25T04:25:22.704Z,68.00
2018-08-25T04:27:50.036Z,68.30
2018-08-25T04:30:17.379Z,68.10
2018-08-25T04:32:44.718Z,68.30
2018-08-25T04:35:12.024Z,68.30
2018-08-25T04:37:39.379Z,68.50
2018-08-25T04:40:06.741Z,68.60
2018-08-25T04:42:34.185Z,68.80
2018-08-25T04:45:01.498Z,69.30
2018-08-25T04:47:28.795Z,69.30
2018-08-25T04:49:56.145Z,69.30
2018-08-25T04:52:23.458Z,69.10
2018-08-25T04:54:50.795Z,68.90
2018-08-25T04:57:18.108Z,69.10
2018-08-25T04:59:45.416Z,69.10
2018-08-25T05:02:12.735Z,69.10
2018-08-25T05:04:40.065Z,69.10
2018-08-25T05:07:07.395Z,69.00
2018-08-25T05:09:34.764Z,69.00
2018-08-25T05:12:02.172Z,68.60
2018-08-25T05:14:29.575Z,68.80
2018-08-25T05:16:56.928Z,68.80
2018-08-25T05:19:24.299Z,69.10
2018-08-25T05:21:51.685Z,68.90
2018-08-25T05:24:19.015Z,69.20
2018-08-25T05:26:46.358Z,69.10
2018-08-25T05:29:13.654Z,69.00
2018-08-25T05:31:40.995Z,69.10
2018-08-25T05:34:08.335Z,69.10
2018-08-25T05:36:35.655Z,68.70
2018-08-25T05:39:05.191Z,68.80
2018-08-25T05:41:33.059Z,69.00
2018-08-25T05:44:00.513Z,68.40
2018-08-25T05:46:27.787Z,68.50
2018-08-25T05:48:55.117Z,69.00
2018-08-25T05:51:22.413Z,69.30
2018-08-25T05:53:49.708Z,69.50
2018-08-25T05:56:17.019Z,70.20
2018-08-25T05:58:44.324Z,71.30
2018-08-25T06:01:11.650Z,71.30
2018-08-25T06:03:38.977Z,71.40
2018-08-25T06:06:06.312Z,71.40
2018-08-25T06:08:33.634Z,73.00
2018-08-25T06:11:00.957Z,72.60
2018-08-25T06:13:28.421Z,73.50
2018-08-25T06:15:55.800Z,73.20
2018-08-25T06:18:23.165Z,72.40
2018-08-25T06:20:50.542Z,72.90
2018-08-25T06:23:17.875Z,73.00
2018-08-25T06:25:45.459Z,72.90
2018-08-25T06:28:12.754Z,73.20
2018-08-25T06:30:40.079Z,73.30
2018-08-25T06:33:07.484Z,74.70
2018-08-25T06:35:34.838Z,74.20
2018-08-25T06:38:02.255Z,75.10
2018-08-25T06:40:29.568Z,74.90
2018-08-25T06:42:56.912Z,75.10
2018-08-25T06:45:24.277Z,74.50
2018-08-25T06:47:51.620Z,75.30
2018-08-25T06:50:19.003Z,75.00
2018-08-25T06:52:46.472Z,75.90
2018-08-25T06:55:13.820Z,76.00
2018-08-25T06:57:41.131Z,76.40
2018-08-25T07:00:08.590Z,76.80
2018-08-25T07:02:35.962Z,77.20
2018-08-25T07:05:03.592Z,77.80
2018-08-25T07:07:30.930Z,77.30
2018-08-25T07:09:58.245Z,77.20
2018-08-25T07:12:25.569Z,77.70
2018-08-25T07:14:52.922Z,78.30
2018-08-25T07:17:20.254Z,78.80
2018-08-25T07:19:47.610Z,79.00
2018-08-25T07:22:14.926Z,79.30
2018-08-25T07:24:42.231Z,79.70
2018-08-25T07:27:09.544Z,79.90
2018-08-25T07:29:36.986Z,78.70
2018-08-25T07:32:04.386Z,79.60
2018-08-25T07:34:31.675Z,80.40
2018-08-25T07:36:58.962Z,79.90
2018-08-25T07:39:26.291Z,79.50
2018-08-25T07:41:53.608Z,79.80
2018-08-25T07:44:20.933Z,80.50
2018-08-25T07:46:48.343Z,80.20
2018-08-25T07:49:15.654Z,79.10
2018-08-25T07:51:43.009Z,79.30
2018-08-25T07:54:10.301Z,78.30
2018-08-25T07:56:37.725Z,78.50
2018-08-25T07:59:05.079Z,79.20
2018-08-25T08:01:32.352Z,78.50
2018-08-25T08:03:59.658Z,78.50
2018-08-25T08:06:27.017Z,78.60
2018-08-25T08:08:54.454Z,78.50
2018-08-25T08:11:21.827Z,77.50
2018-08-25T08:13:49.168Z,77.90
2018-08-25T08:16:16.494Z,77.80
2018-08-25T08:18:43.785Z,77.90
2018-08-25T08:21:11.116Z,77.60
2018-08-25T08:23:38.464Z,78.00
2018-08-25T08:26:05.777Z,76.30
2018-08-25T08:28:33.222Z,76.20
2018-08-25T08:31:00.535Z,76.00
2018-08-25T08:33:27.944Z,74.70
2018-08-25T08:35:55.223Z,75.60
2018-08-25T08:38:24.690Z,75.60
2018-08-25T08:40:52.003Z,75.90
2018-08-25T08:43:19.320Z,76.20
2018-08-25T08:45:46.739Z,76.00
2018-08-25T08:48:14.032Z,75.40
2018-08-25T08:50:41.368Z,75.40
2018-08-25T08:53:08.699Z,75.30
2018-08-25T08:55:36.035Z,76.00
2018-08-25T08:58:03.438Z,76.90
2018-08-25T09:00:30.752Z,76.60
2018-08-25T09:02:58.187Z,76.60
2018-08-25T09:05:25.549Z,76.30
2018-08-25T09:07:52.871Z,75.80
2018-08-25T09:10:20.167Z,75.60
2018-08-25T09:12:47.467Z,75.30
2018-08-25T09:15:14.779Z,77.50
2018-08-25T09:17:42.094Z,76.30
2018-08-25T09:20:09.485Z,75.90
2018-08-25T09:22:36.819Z,75.20
2018-08-25T09:25:04.166Z,75.70
2018-08-25T09:27:31.706Z,75.50
2018-08-25T09:29:58.931Z,72.60
2018-08-25T09:32:26.279Z,71.60
2018-08-25T09:34:53.623Z,72.40
2018-08-25T09:37:21.020Z,70.30
2018-08-25T09:39:48.346Z,70.10
2018-08-25T09:42:15.657Z,70.90
2018-08-25T09:44:43.043Z,69.40
2018-08-25T09:47:10.523Z,68.80
2018-08-25T09:49:37.904Z,69.40
2018-08-25T09:52:05.953Z,68.80
2018-08-25T09:54:33.385Z,67.50
2018-08-25T09:57:00.777Z,66.10
2018-08-25T09:59:28.633Z,66.70
2018-08-25T10:01:55.982Z,68.20
2018-08-25T10:04:23.348Z,66.70
2018-08-25T10:06:50.689Z,66.80
2018-08-25T10:09:18.007Z,66.70
2018-08-25T10:11:45.345Z,66.70
2018-08-25T10:14:13.028Z,67.30
2018-08-25T10:16:40.749Z,65.40
2018-08-25T10:19:09.030Z,65.90
2018-08-25T10:21:36.720Z,65.30
2018-08-25T10:24:04.682Z,64.50
2018-08-25T10:26:32.077Z,63.90
2018-08-25T10:28:59.627Z,63.00
2018-08-25T10:31:27.546Z,62.10
2018-08-25T10:33:55.150Z,59.90
2018-08-25T10:36:24.153Z,58.90
2018-08-25T10:38:52.325Z,55.70
2018-08-25T10:41:20.313Z,56.50
2018-08-25T10:43:47.665Z,56.60
2018-08-25T10:46:15.042Z,56.80
2018-08-25T10:48:42.392Z,56.30
2018-08-25T10:51:09.829Z,58.10
2018-08-25T10:53:37.210Z,59.10
2018-08-25T10:56:04.559Z,57.70
2018-08-25T10:58:31.984Z,56.10
2018-08-25T11:00:59.394Z,57.10
2018-08-25T11:03:26.675Z,57.60
2018-08-25T11:05:53.986Z,57.90
2018-08-25T11:08:21.321Z,57.60
2018-08-25T11:10:48.655Z,56.00
2018-08-25T11:13:15.963Z,56.40
2018-08-25T11:15:43.261Z,56.90
2018-08-25T11:18:10.647Z,57.70
2018-08-25T11:20:37.978Z,57.50
2018-08-25T11:23:05.387Z,57.40
2018-08-25T11:25:32.722Z,56.40
2018-08-25T11:28:00.071Z,55.30
2018-08-25T11:30:27.548Z,55.80
2018-08-25T11:32:54.881Z,55.40
2018-08-25T11:35:22.203Z,55.40
2018-08-25T11:37:49.626Z,55.50
2018-08-25T11:40:16.856Z,56.10
2018-08-25T11:42:44.191Z,55.30
2018-08-25T11:45:11.578Z,56.30
2018-08-25T11:47:38.914Z,57.20
2018-08-25T11:50:06.293Z,57.10
2018-08-25T11:52:33.715Z,57.20
2018-08-25T11:55:01.040Z,57.20
2018-08-25T11:57:28.394Z,56.70
2018-08-25T11:59:55.691Z,55.70
2018-08-25T12:02:23.467Z,55.50
2018-08-25T12:04:50.813Z,55.90
2018-08-25T12:07:18.106Z,55.00
2018-08-25T12:09:45.447Z,55.70
2018-08-25T12:12:12.750Z,55.10
2018-08-25T12:14:40.206Z,55.60
2018-08-25T12:17:07.629Z,55.30
2018-08-25T12:19:35.462Z,54.10
2018-08-25T12:22:03.715Z,53.40
2018-08-25T12:24:31.076Z,54.00
2018-08-25T12:26:58.440Z,53.50
2018-08-25T12:29:25.899Z,53.30
2018-08-25T12:31:53.253Z,53.90
2018-08-25T12:34:20.609Z,54.10
2018-08-25T12:36:48.387Z,54.20
2018-08-25T12:39:16.208Z,54.30
2018-08-25T12:41:43.646Z,55.10
2018-08-25T12:44:11.025Z,54.70
2018-08-25T12:46:38.391Z,55.30
2018-08-25T12:49:05.870Z,55.30
2018-08-25T12:51:33.292Z,55.40
2018-08-25T12:54:00.531Z,55.10
2018-08-25T12:56:28.437Z,54.80
2018-08-25T12:58:55.824Z,54.50
2018-08-25T13:01:23.224Z,54.40
2018-08-25T13:03:50.553Z,54.80
2018-08-25T13:06:17.887Z,54.80
2018-08-25T13:08:45.217Z,54.50
2018-08-25T13:11:12.688Z,54.90
2018-08-25T13:13:40.032Z,54.90
2018-08-25T13:16:07.377Z,55.20
2018-08-25T13:18:34.823Z,55.50
2018-08-25T13:21:02.192Z,55.20
2018-08-25T13:23:32.056Z,55.30
2018-08-25T13:25:59.278Z,55.10
2018-08-25T13:28:26.593Z,55.40
2018-08-25T13:30:54.387Z,54.40
2018-08-25T13:33:21.630Z,54.30
2018-08-25T13:35:50.080Z,54.90
2018-08-25T13:38:18.557Z,55.10
2018-08-25T13:40:45.756Z,55.50
2018-08-25T13:43:13.087Z,55.20
2018-08-25T13:45:40.649Z,54.40
2018-08-25T13:48:08.015Z,53.80
2018-08-25T13:50:36.648Z,54.00
2018-08-25T13:53:04.056Z,53.50
2018-08-25T13:55:31.486Z,53.80
2018-08-25T13:57:58.835Z,53.30
2018-08-25T14:00:26.153Z,54.00
2018-08-25T14:02:53.465Z,53.70
2018-08-25T14:05:20.803Z,53.20
2018-08-25T14:07:48.157Z,54.00
2018-08-25T14:10:15.434Z,54.00
2018-08-25T14:12:42.766Z,53.90
2018-08-25T14:15:10.084Z,54.10
2018-08-25T14:17:37.440Z,53.90
2018-08-25T14:20:04.806Z,53.40
2018-08-25T14:22:33.194Z,54.40
2018-08-25T14:25:00.497Z,54.90
2018-08-25T14:27:27.856Z,54.50
2018-08-25T14:29:55.240Z,53.20
2018-08-25T14:32:22.519Z,53.00
2018-08-25T14:34:49.923Z,52.80
2018-08-25T14:37:17.275Z,53.20
2018-08-25T14:39:44.587Z,53.50
2018-08-25T14:42:11.984Z,53.70
2018-08-25T14:44:39.299Z,53.40
2018-08-25T14:47:07.186Z,53.50
2018-08-25T14:49:34.510Z,54.20
2018-08-25T14:52:01.816Z,53.30
2018-08-25T14:54:29.150Z,53.20
2018-08-25T14:56:56.516Z,52.40
2018-08-25T14:59:23.941Z,52.40
2018-08-25T15:01:51.255Z,51.90
2018-08-25T15:04:18.597Z,52.80
2018-08-25T15:06:46.505Z,52.80
2018-08-25T15:09:14.449Z,53.10
2018-08-25T15:11:41.795Z,51.50
2018-08-25T15:14:09.123Z,51.80
2018-08-25T15:16:36.472Z,51.80
2018-08-25T15:19:04.090Z,52.70
2018-08-25T15:21:31.594Z,52.50
2018-08-25T15:23:59.212Z,52.50
2018-08-25T15:26:26.583Z,52.70
2018-08-25T15:28:53.931Z,53.00
2018-08-25T15:31:21.229Z,52.90
2018-08-25T15:33:48.537Z,52.40
2018-08-25T15:36:15.885Z,52.50
2018-08-25T15:38:43.214Z,52.70
2018-08-25T15:41:10.595Z,53.30
2018-08-25T15:43:38.607Z,52.10
2018-08-25T15:46:07.206Z,52.10
2018-08-25T15:48:34.835Z,52.10
2018-08-25T15:51:02.161Z,52.90
2018-08-25T15:53:29.504Z,53.10
2018-08-25T15:55:56.952Z,52.80
2018-08-25T15:58:24.285Z,53.00
2018-08-25T16:00:51.609Z,52.80
2018-08-25T16:03:19.723Z,52.50
2018-08-25T16:05:47.059Z,51.60
2018-08-25T16:08:14.385Z,50.90
2018-08-25T16:10:41.855Z,51.50
2018-08-25T16:13:09.244Z,51.60
2018-08-25T16:15:37.468Z,51.90
2018-08-25T16:18:04.972Z,51.00
2018-08-25T16:20:32.303Z,51.40
2018-08-25T16:22:59.806Z,50.90
2018-08-25T16:25:27.925Z,50.90
2018-08-25T16:27:55.241Z,51.50
2018-08-25T16:30:22.586Z,51.80
2018-08-25T16:32:50.514Z,51.40
2018-08-25T16:35:17.838Z,50.80
2018-08-25T16:37:45.191Z,51.00
2018-08-25T16:40:12.589Z,50.30
2018-08-25T16:42:40.127Z,50.00
2018-08-25T16:45:07.474Z,50.90
2018-08-25T16:47:34.918Z,50.50
2018-08-25T16:50:02.277Z,51.30
2018-08-25T16:52:29.661Z,51.00
2018-08-25T16:54:56.966Z,51.20
2018-08-25T16:57:24.321Z,50.80
2018-08-25T16:59:52.505Z,50.80
2018-08-25T17:02:21.191Z,50.80
2018-08-25T17:04:48.547Z,50.40
2018-08-25T17:07:15.867Z,50.70
2018-08-25T17:09:43.265Z,50.40
2018-08-25T17:12:10.571Z,50.00
2018-08-25T17:14:37.892Z,49.30
2018-08-25T17:17:05.205Z,49.50
2018-08-25T17:19:32.577Z,50.60
2018-08-25T17:21:59.919Z,51.40
2018-08-25T17:24:27.265Z,51.60
2018-08-25T17:26:54.640Z,51.80
2018-08-25T17:29:21.909Z,51.90
2018-08-25T17:31:49.234Z,52.00
2018-08-25T17:34:16.533Z,52.40
2018-08-25T17:36:43.887Z,52.90
2018-08-25T17:39:11.207Z,53.20
2018-08-25T17:41:38.684Z,53.20
2018-08-25T17:44:05.986Z,53.30
2018-08-25T17:46:33.380Z,53.30
2018-08-25T17:49:00.688Z,56.00
2018-08-25T17:51:27.991Z,58.50
2018-08-25T17:53:55.307Z,59.90
2018-08-25T17:56:22.589Z,61.30
2018-08-25T17:58:49.931Z,62.50
2018-08-25T18:01:17.263Z,63.00
2018-08-25T18:03:44.692Z,63.70
2018-08-25T18:06:11.931Z,64.10
2018-08-25T18:08:39.274Z,64.40
2018-08-25T18:11:06.628Z,64.40
2018-08-25T18:13:33.924Z,64.50
2018-08-25T18:16:01.250Z,64.60
2018-08-25T18:18:28.554Z,64.90
2018-08-25T18:20:55.878Z,64.70
2018-08-25T18:23:23.232Z,65.00
2018-08-25T18:25:51.557Z,65.40
2018-08-25T18:28:18.887Z,65.40
2018-08-25T18:30:46.199Z,65.60
2018-08-25T18:33:13.501Z,65.40
2018-08-25T18:35:40.845Z,65.30
2018-08-25T18:38:08.186Z,65.40
2018-08-25T18:40:35.532Z,65.80
2018-08-25T18:43:03.511Z,66.20
2018-08-25T18:45:30.829Z,66.40
2018-08-25T18:47:58.187Z,66.60
2018-08-25T18:50:25.581Z,66.60
2018-08-25T18:52:52.926Z,66.80
2018-08-25T18:55:20.226Z,66.70
2018-08-25T18:57:47.581Z,66.80
2018-08-25T19:00:14.909Z,66.20
2018-08-25T19:02:42.234Z,66.00
2018-08-25T19:05:09.585Z,66.20
2018-08-25T19:07:36.945Z,66.30
2018-08-25T19:10:04.272Z,66.20
2018-08-25T19:12:31.651Z,66.10
2018-08-25T19:14:58.992Z,65.90
2018-08-25T19:17:26.339Z,65.70
2018-08-25T19:19:53.727Z,65.50
2018-08-25T19:22:21.024Z,65.60
2018-08-25T19:24:48.350Z,66.30
2018-08-25T19:27:15.671Z,66.30
2018-08-25T19:29:43.058Z,66.60
2018-08-25T19:32:10.404Z,66.40
2018-08-25T19:34:37.747Z,65.80
2018-08-25T19:37:05.165Z,66.20
2018-08-25T19:39:32.495Z,66.40
2018-08-25T19:41:59.878Z,66.40
2018-08-25T19:44:28.129Z,66.20
2018-08-25T19:46:55.510Z,65.90
2018-08-25T19:49:22.840Z,66.60
2018-08-25T19:51:50.141Z,66.60
2018-08-25T19:54:17.495Z,66.80
2018-08-25T19:56:44.848Z,67.00
2018-08-25T19:59:13.003Z,66.80
2018-08-25T20:01:40.445Z,67.00
2018-08-25T20:04:08.275Z,67.00
2018-08-25T20:06:36.350Z,67.20
2018-08-25T20:09:05.689Z,67.10
2018-08-25T20:11:33.322Z,66.80
2018-08-25T20:14:00.736Z,67.00
2018-08-25T20:16:28.072Z,67.20
2018-08-25T20:18:55.381Z,67.00
2018-08-25T20:21:22.721Z,67.30
2018-08-25T20:23:50.051Z,67.80
2018-08-25T20:26:17.386Z,67.80
2018-08-25T20:28:44.738Z,67.60
2018-08-25T20:31:12.067Z,67.50
2018-08-25T20:33:39.491Z,67.60
2018-08-25T20:36:06.852Z,67.40
2018-08-25T20:38:34.348Z,67.10
2018-08-25T20:41:01.671Z,68.30
2018-08-25T20:43:28.980Z,68.50
2018-08-25T20:45:56.471Z,68.80
2018-08-25T20:48:23.703Z,68.90
2018-08-25T20:50:51.033Z,69.50
2018-08-25T20:53:18.327Z,69.30
2018-08-25T20:55:45.650Z,69.00
2018-08-25T20:58:13.008Z,68.50
2018-08-25T21:00:40.336Z,68.20
2018-08-25T21:03:07.638Z,67.90
2018-08-25T21:05:34.959Z,68.20
2018-08-25T21:08:02.299Z,68.90
2018-08-25T21:10:29.600Z,69.30
2018-08-25T21:12:56.981Z,69.50
2018-08-25T21:15:24.300Z,69.20
2018-08-25T21:17:51.609Z,68.90
2018-08-25T21:20:18.938Z,69.10
2018-08-25T21:22:46.280Z,68.90
2018-08-25T21:25:13.590Z,68.90
2018-08-25T21:27:40.902Z,68.60
2018-08-25T21:30:08.230Z,68.10
2018-08-25T21:32:35.548Z,68.50
2018-08-25T21:35:02.855Z,68.00
2018-08-25T21:37:30.169Z,68.00
2018-08-25T21:39:57.500Z,68.00
2018-08-25T21:42:24.880Z,67.80
2018-08-25T21:44:52.192Z,67.90
2018-08-25T21:47:19.526Z,67.40
2018-08-25T21:49:46.830Z,67.70
2018-08-25T21:52:14.161Z,67.20
2018-08-25T21:54:41.529Z,67.10
2018-08-25T21:57:08.841Z,67.00
2018-08-25T21:59:36.168Z,67.20
2018-08-25T22:02:03.495Z,67.40
2018-08-25T22:04:30.787Z,67.60
2018-08-25T22:06:58.073Z,67.30
2018-08-25T22:09:25.406Z,67.30
2018-08-25T22:11:52.689Z,67.60
2018-08-25T22:14:20.000Z,67.50
2018-08-25T22:16:47.327Z,67.50
2018-08-25T22:19:14.585Z,67.60
2018-08-25T22:21:41.936Z,67.70
2018-08-25T22:24:09.249Z,67.60
2018-08-25T22:26:36.633Z,67.60
2018-08-25T22:29:03.988Z,68.10
2018-08-25T22:31:31.333Z,68.10
2018-08-25T22:33:58.619Z,68.00
2018-08-25T22:36:25.951Z,68.80
2018-08-25T22:38:53.242Z,68.50
2018-08-25T22:41:20.608Z,68.50
2018-08-25T22:43:47.849Z,68.60
2018-08-25T22:46:15.155Z,68.80
2018-08-25T22:48:42.469Z,69.20
2018-08-25T22:51:09.800Z,69.20
2018-08-25T22:53:37.114Z,69.80
2018-08-25T22:56:04.482Z,69.90
2018-08-25T22:58:31.776Z,70.00
2018-08-25T23:00:59.095Z,70.00
2018-08-25T23:03:26.392Z,70.30
2018-08-25T23:05:53.713Z,70.80
2018-08-25T23:08:20.998Z,70.70
2018-08-25T23:10:48.321Z,70.40
2018-08-25T23:13:15.660Z,71.00
2018-08-25T23:15:42.972Z,71.00
2018-08-25T23:18:10.286Z,71.10
2018-08-25T23:20:37.635Z,71.40
2018-08-25T23:23:05.036Z,71.70
2018-08-25T23:25:32.360Z,71.50
2018-08-25T23:27:59.680Z,71.90
2018-08-25T23:30:27.110Z,71.30
2018-08-25T23:32:54.355Z,72.00
2018-08-25T23:35:21.657Z,72.00
2018-08-25T23:37:48.997Z,71.90
2018-08-25T23:40:16.351Z,72.60
2018-08-25T23:42:43.709Z,72.20
2018-08-25T23:45:11.056Z,72.10
2018-08-25T23:47:38.371Z,72.00
2018-08-25T23:50:05.719Z,71.40
2018-08-25T23:52:33.075Z,71.90
2018-08-25T23:55:00.419Z,71.80
2018-08-25T23:57:27.982Z,72.00
2018-08-25T23:59:55.300Z,72.40
